Time;durP1;ratioP1;P1;durP2;ratioP2;P2;SDS_P1;SDS_P2;PMS_P1;PMS_P2;Temp;Humidity;BMP_temperature;BMP_pressure;BME280_temperature;BME280_humidity;BME280_pressure;Samples;Min_cycle;Max_cycle;Signal;HPM_P1;HPM_P2
2021/12/09 10:55:37;;;;;;;13.70;5.43;;;6.70;99.90;;;;;;6278279;22;21522;-75
2021/12/09 10:58:09;;;;;;;17.77;9.27;;;6.70;99.90;;;;;;6307022;22;20139;-75
2021/12/09 11:00:56;;;;;;;11.40;6.40;;;6.50;99.90;;;;;;6279374;22;20158;-75
2021/12/09 11:03:29;;;;;;;11.73;5.47;;;6.40;99.90;;;;;;6306819;22;20137;-75
2021/12/09 11:06:01;;;;;;;13.47;6.13;;;6.30;99.90;;;;;;6279585;22;20232;-76
2021/12/09 11:08:47;;;;;;;19.43;7.13;;;6.40;99.90;;;;;;6306900;22;20173;-76
2021/12/09 11:11:30;;;;;;;18.03;6.37;;;6.20;99.90;;;;;;6308072;22;20173;-76
2021/12/09 11:14:14;;;;;;;14.40;9.47;;;6.20;99.90;;;;;;6308714;22;20138;-75
2021/12/09 11:16:49;;;;;;;16.83;5.67;;;6.40;99.90;;;;;;6308647;22;20169;-78
2021/12/09 11:22:01;;;;;;;15.50;7.57;;;6.30;99.90;;;;;;6319646;22;20169;-76
2021/12/09 11:24:32;;;;;;;12.67;6.10;;;6.20;99.90;;;;;;6308247;22;20137;-75
2021/12/09 11:27:07;;;;;;;12.77;5.10;;;6.20;99.90;;;;;;6309358;22;20154;-75
2021/12/09 11:29:37;;;;;;;16.77;8.93;;;6.10;99.90;;;;;;6308509;22;20458;-76
2021/12/09 11:33:02;;;;;;;20.93;6.40;;;6.00;99.90;;;;;;6308684;22;20130;-75
2021/12/09 11:35:16;;;;;;;11.50;7.33;;;6.00;99.90;;;;;;6287156;22;20180;-76
2021/12/09 11:37:55;;;;;;;17.63;7.20;;;6.00;99.90;;;;;;6308437;22;20138;-77
2021/12/09 11:40:56;;;;;;;14.00;6.67;;;6.10;99.90;;;;;;6309003;22;20130;-78
2021/12/09 11:43:25;;;;;;;18.90;6.17;;;6.20;99.90;;;;;;6308187;22;20137;-78
2021/12/09 11:45:53;;;;;;;12.10;5.30;;;6.30;99.90;;;;;;6308615;22;20149;-76
2021/12/09 11:48:18;;;;;;;14.53;6.10;;;6.20;99.90;;;;;;6308453;22;20130;-75
2021/12/09 11:50:50;;;;;;;15.47;5.67;;;6.30;99.90;;;;;;6308449;22;20138;-78
2021/12/09 11:53:26;;;;;;;12.60;5.90;;;6.50;99.90;;;;;;6307820;22;20134;-78
2021/12/09 11:58:28;;;;;;;13.03;5.93;;;6.70;99.90;;;;;;6318744;22;20152;-79
2021/12/09 12:12:23;;;;;;;13.23;5.43;;;6.80;99.90;;;;;;6308483;22;20220;-78
2021/12/09 12:14:52;;;;;;;14.57;5.97;;;6.90;99.90;;;;;;6308082;22;20170;-78
2021/12/09 12:17:26;;;;;;;10.77;4.37;;;7.00;99.90;;;;;;6308321;22;20126;-76
2021/12/09 12:19:57;;;;;;;11.37;5.60;;;7.10;99.90;;;;;;6280687;22;20148;-80
2021/12/09 12:28:42;;;;;;;18.63;6.80;;;7.40;99.90;;;;;;6308484;22;20245;-80
2021/12/09 12:34:38;;;;;;;12.90;6.37;;;7.60;99.90;;;;;;6318739;22;20138;-76
2021/12/09 12:42:46;;;;;;;18.47;5.37;;;7.70;99.90;;;;;;6287337;22;20150;-76
2021/12/09 12:45:29;;;;;;;19.00;6.27;;;7.70;99.90;;;;;;6307830;22;20163;-75
2021/12/09 12:48:21;;;;;;;10.97;5.30;;;7.70;99.90;;;;;;6308019;22;20146;-75
2021/12/09 12:51:16;;;;;;;10.97;4.90;;;7.80;99.90;;;;;;6306047;22;20170;-76
2021/12/09 12:53:45;;;;;;;10.50;4.50;;;7.80;99.90;;;;;;6308018;22;20154;-85
2021/12/09 12:56:15;;;;;;;21.40;8.07;;;7.70;99.90;;;;;;6280472;22;20194;-85
2021/12/09 13:01:39;;;;;;;17.60;5.70;;;7.80;99.90;;;;;;6307446;22;20575;-79
2021/12/09 13:04:46;;;;;;;17.00;5.17;;;7.80;99.90;;;;;;6308163;22;20184;-80
2021/12/09 13:07:41;;;;;;;14.40;5.17;;;7.70;99.90;;;;;;6307809;22;20149;-79
2021/12/09 13:10:46;;;;;;;11.77;6.23;;;7.40;99.90;;;;;;6307289;22;20625;-79
2021/12/09 13:16:04;;;;;;;21.53;8.47;;;7.40;99.90;;;;;;6317996;22;20506;-77
2021/12/09 13:21:41;;;;;;;17.40;7.23;;;7.30;99.90;;;;;;6307003;22;20239;-75
2021/12/09 13:24:29;;;;;;;19.70;6.57;;;7.40;99.90;;;;;;6307522;22;20159;-76
2021/12/09 13:32:55;;;;;;;20.70;6.07;;;7.60;99.90;;;;;;6306837;22;20233;-78
2021/12/09 13:49:10;;;;;;;18.97;7.70;;;7.30;99.90;;;;;;6307400;22;20192;-81
2021/12/09 13:56:47;;;;;;;16.43;4.40;;;7.50;99.90;;;;;;6310930;22;20211;-81
2021/12/09 13:59:21;;;;;;;18.40;4.60;;;7.50;99.90;;;;;;6307208;22;20187;-81
2021/12/09 14:01:49;;;;;;;16.57;4.10;;;7.40;99.90;;;;;;6307205;22;20135;-81
2021/12/09 14:04:19;;;;;;;9.60;4.07;;;7.50;99.90;;;;;;6307051;22;20142;-80
2021/12/09 14:06:48;;;;;;;14.73;4.40;;;7.50;99.90;;;;;;6307138;22;20130;-80
2021/12/09 14:09:13;;;;;;;14.30;4.97;;;7.50;99.90;;;;;;6279716;22;20475;-81
2021/12/09 14:11:46;;;;;;;15.47;4.80;;;7.50;99.90;;;;;;6306805;22;20158;-78
2021/12/09 14:14:20;;;;;;;17.63;5.17;;;7.40;99.90;;;;;;6307455;22;20138;-80
2021/12/09 14:16:55;;;;;;;13.20;4.50;;;7.50;99.90;;;;;;6306899;22;20216;-81
2021/12/09 14:21:57;;;;;;;18.30;4.73;;;7.30;99.90;;;;;;6307369;22;20142;-81
2021/12/09 14:24:30;;;;;;;14.13;5.83;;;7.30;99.90;;;;;;6280406;22;20165;-81
2021/12/09 14:27:10;;;;;;;18.37;5.23;;;7.30;99.90;;;;;;6307025;22;20525;-81
2021/12/09 14:29:35;;;;;;;15.40;5.53;;;7.30;99.90;;;;;;6306961;22;20138;-78
2021/12/09 14:32:05;;;;;;;18.97;5.97;;;7.40;99.90;;;;;;6306950;22;20160;-79
2021/12/09 14:34:47;;;;;;;22.13;5.50;;;7.50;99.90;;;;;;6307008;22;20586;-81
2021/12/09 14:37:15;;;;;;;24.77;5.93;;;7.60;99.90;;;;;;6307095;22;20161;-81
2021/12/09 14:39:42;;;;;;;15.13;6.33;;;7.70;99.90;;;;;;6307077;22;20455;-79
2021/12/09 14:42:17;;;;;;;15.63;6.00;;;7.70;99.90;;;;;;6307063;22;20210;-79
2021/12/09 14:44:59;;;;;;;16.70;6.20;;;7.70;99.90;;;;;;6308522;22;20510;-79
2021/12/09 14:47:25;;;;;;;15.63;5.90;;;7.60;99.90;;;;;;6308668;22;20560;-79
2021/12/09 14:49:55;;;;;;;16.23;5.63;;;7.50;99.90;;;;;;6309228;22;20142;-80
2021/12/09 15:02:36;;;;;;;19.53;7.30;;;7.50;99.90;;;;;;6310351;22;20232;-88
2021/12/09 15:05:13;;;;;;;16.63;8.03;;;7.50;99.90;;;;;;6282672;22;20287;-88
2021/12/09 15:07:48;;;;;;;17.00;6.60;;;7.50;99.90;;;;;;6309333;22;20589;-85
2021/12/09 15:10:21;;;;;;;17.50;6.67;;;7.50;99.90;;;;;;6274797;22;20553;-86
2021/12/09 15:12:47;;;;;;;25.73;7.43;;;7.50;99.90;;;;;;6251152;22;20147;-88
2021/12/09 15:15:34;;;;;;;18.10;6.80;;;7.60;99.90;;;;;;6251586;22;20253;-84
2021/12/09 15:18:10;;;;;;;17.00;7.80;;;7.70;99.90;;;;;;6251349;22;20142;-87
2021/12/09 15:20:54;;;;;;;14.77;7.60;;;7.60;99.90;;;;;;6251279;22;20146;-87
2021/12/09 15:23:30;;;;;;;21.73;7.67;;;7.60;99.90;;;;;;6251636;22;20139;-85
2021/12/09 15:25:56;;;;;;;16.97;6.67;;;7.60;99.90;;;;;;6278760;22;20575;-88
2021/12/09 15:28:22;;;;;;;23.83;8.37;;;7.70;99.90;;;;;;6251433;22;20147;-87
2021/12/09 15:30:49;;;;;;;14.83;6.53;;;7.80;99.90;;;;;;6250997;22;20140;-88
2021/12/09 15:33:35;;;;;;;13.60;6.00;;;7.90;99.90;;;;;;6251482;22;20209;-87
2021/12/09 15:36:05;;;;;;;16.67;6.10;;;7.80;99.90;;;;;;6250941;22;20232;-87
2021/12/09 15:38:31;;;;;;;15.90;6.10;;;7.70;99.90;;;;;;6251990;22;20140;-84
2021/12/09 15:40:57;;;;;;;15.03;5.77;;;7.80;99.90;;;;;;6278297;22;20210;-86
2021/12/09 15:43:25;;;;;;;26.57;6.63;;;7.70;99.90;;;;;;6251063;22;20170;-85
2021/12/09 15:45:57;;;;;;;14.93;6.63;;;7.80;99.90;;;;;;6277900;22;20460;-86
2021/12/09 15:48:25;;;;;;;17.20;6.10;;;7.70;99.90;;;;;;6251356;22;20139;-85
2021/12/09 15:51:02;;;;;;;12.10;5.37;;;7.60;99.90;;;;;;6251143;22;20139;-85
2021/12/09 15:53:32;;;;;;;16.73;6.23;;;7.70;99.90;;;;;;6251033;22;20147;-85
2021/12/09 15:55:59;;;;;;;29.50;7.60;;;7.70;99.90;;;;;;6278446;22;20176;-84
2021/12/09 15:58:24;;;;;;;21.30;5.77;;;7.70;99.90;;;;;;6250883;22;20240;-84
2021/12/09 16:00:52;;;;;;;14.40;4.93;;;7.70;99.90;;;;;;6277677;22;20567;-88
2021/12/09 16:03:19;;;;;;;11.40;4.43;;;7.50;99.90;;;;;;6277756;22;20158;-84
2021/12/09 16:05:45;;;;;;;11.67;4.70;;;7.50;99.90;;;;;;6251088;22;20462;-86
2021/12/09 16:08:11;;;;;;;16.87;4.50;;;7.50;99.90;;;;;;6278125;22;20150;-87
2021/12/09 16:10:37;;;;;;;19.10;4.97;;;7.40;99.90;;;;;;6277716;22;20163;-82
2021/12/09 16:13:02;;;;;;;17.17;4.17;;;7.30;99.90;;;;;;6278394;22;20135;-85
2021/12/09 16:15:38;;;;;;;18.67;5.93;;;7.30;99.90;;;;;;6277417;22;20555;-88
2021/12/09 16:18:04;;;;;;;12.73;4.80;;;7.40;99.90;;;;;;6251018;22;20142;-84
2021/12/09 16:20:36;;;;;;;16.63;5.63;;;7.40;99.90;;;;;;6250863;22;20146;-84
2021/12/09 16:23:02;;;;;;;23.57;7.03;;;7.30;99.90;;;;;;6251055;22;20225;-84
2021/12/09 16:25:28;;;;;;;24.37;7.63;;;7.30;99.90;;;;;;6250846;22;20228;-85
2021/12/09 16:27:55;;;;;;;21.87;7.93;;;7.20;99.90;;;;;;6250471;22;20142;-87
2021/12/09 16:30:29;;;;;;;31.03;11.87;;;7.20;99.90;;;;;;6251314;22;20153;-87
2021/12/09 16:32:56;;;;;;;24.70;8.03;;;7.20;99.90;;;;;;6250682;22;20164;-88
2021/12/09 16:35:25;;;;;;;25.33;15.73;;;7.20;99.90;;;;;;6250775;22;20178;-88
2021/12/09 16:37:51;;;;;;;20.77;7.20;;;7.30;99.90;;;;;;6251087;22;20154;-84
2021/12/09 16:40:27;;;;;;;15.90;6.67;;;7.40;99.90;;;;;;6250592;22;20139;-86
2021/12/09 16:42:54;;;;;;;17.57;7.10;;;7.40;99.90;;;;;;6250358;22;20594;-87
2021/12/09 16:45:22;;;;;;;20.23;9.70;;;7.30;99.90;;;;;;6250493;22;20169;-86
2021/12/09 16:47:50;;;;;;;19.10;5.67;;;7.30;99.90;;;;;;6250694;22;20142;-87
2021/12/09 16:50:18;;;;;;;20.03;6.33;;;7.30;99.90;;;;;;6250636;22;20143;-88
2021/12/09 16:52:44;;;;;;;20.70;7.43;;;7.30;99.90;;;;;;6250587;22;20664;-87
2021/12/09 16:55:15;;;;;;;18.37;5.87;;;7.20;99.90;;;;;;6250588;22;20209;-86
2021/12/09 16:57:47;;;;;;;17.53;7.03;;;7.30;99.90;;;;;;6250529;22;20171;-87
2021/12/09 17:00:20;;;;;;;17.97;6.83;;;7.30;99.90;;;;;;6250463;22;20147;-87
2021/12/09 17:02:46;;;;;;;20.73;5.73;;;7.40;99.90;;;;;;6250265;22;20173;-87
2021/12/09 17:05:14;;;;;;;15.57;5.37;;;7.40;99.90;;;;;;6250095;22;20186;-88
2021/12/09 17:07:40;;;;;;;22.20;6.80;;;7.40;99.90;;;;;;6277386;22;20141;-83
2021/12/09 17:10:09;;;;;;;13.87;6.33;;;7.30;99.90;;;;;;6250542;22;20568;-88
2021/12/09 17:12:35;;;;;;;24.07;6.73;;;7.30;99.90;;;;;;6250479;22;20551;-86
2021/12/09 17:15:06;;;;;;;15.10;6.00;;;7.30;99.90;;;;;;6249744;22;20182;-87
2021/12/09 17:17:32;;;;;;;15.70;5.17;;;7.20;99.90;;;;;;6276734;22;20177;-85
2021/12/09 17:19:57;;;;;;;18.57;6.93;;;7.20;99.90;;;;;;6250121;22;20622;-88
2021/12/09 17:22:24;;;;;;;23.20;5.23;;;7.20;99.90;;;;;;6250498;22;20168;-88
2021/12/09 17:24:51;;;;;;;19.27;5.20;;;7.10;99.90;;;;;;6250423;22;20154;-86
2021/12/09 17:27:16;;;;;;;23.17;4.17;;;7.10;99.90;;;;;;6250164;22;20147;-87
2021/12/09 17:29:42;;;;;;;17.43;4.93;;;7.20;99.90;;;;;;6277567;22;20598;-86
2021/12/09 17:32:08;;;;;;;22.77;6.20;;;7.20;99.90;;;;;;6250551;22;20151;-88
2021/12/09 17:34:35;;;;;;;10.93;4.33;;;7.30;99.90;;;;;;6249801;22;20615;-86
2021/12/09 17:37:03;;;;;;;13.23;3.87;;;7.30;99.90;;;;;;6250326;22;20146;-87
2021/12/09 17:39:31;;;;;;;18.50;4.63;;;7.30;99.90;;;;;;6250210;22;20143;-88
2021/12/09 17:42:00;;;;;;;24.67;6.70;;;7.40;99.90;;;;;;6249880;22;20169;-87
2021/12/09 17:44:29;;;;;;;31.87;9.43;;;7.40;99.90;;;;;;6250335;22;20220;-87
2021/12/09 17:46:58;;;;;;;12.97;4.60;;;7.30;99.90;;;;;;6250280;22;20156;-85
2021/12/09 17:49:27;;;;;;;43.83;17.50;;;7.30;99.90;;;;;;6250609;22;20147;-88
2021/12/09 17:52:02;;;;;;;23.87;6.60;;;7.30;99.90;;;;;;6276930;22;20135;-87
2021/12/09 17:54:28;;;;;;;15.33;5.47;;;7.30;99.90;;;;;;6250386;22;20173;-85
2021/12/09 17:56:54;;;;;;;50.90;21.93;;;7.20;99.90;;;;;;6249981;22;20182;-87
2021/12/09 17:59:20;;;;;;;39.67;15.97;;;7.20;99.90;;;;;;6250348;22;20218;-87
2021/12/09 18:01:45;;;;;;;16.33;4.60;;;7.10;99.90;;;;;;6276585;22;20174;-87
2021/12/09 18:04:11;;;;;;;17.50;7.30;;;7.10;99.90;;;;;;6249852;22;20225;-87
2021/12/09 18:06:36;;;;;;;19.43;6.07;;;7.00;99.90;;;;;;6250318;22;20173;-84
2021/12/09 18:09:03;;;;;;;16.00;5.80;;;7.10;99.90;;;;;;6250535;22;20138;-87
2021/12/09 18:11:32;;;;;;;18.50;5.60;;;7.10;99.90;;;;;;6249404;22;20167;-88
2021/12/09 18:13:58;;;;;;;35.60;17.63;;;7.20;99.90;;;;;;6250355;22;20225;-84
2021/12/09 18:16:30;;;;;;;25.27;8.20;;;7.10;99.90;;;;;;6250019;22;20202;-87
2021/12/09 18:18:55;;;;;;;19.83;4.83;;;7.10;99.90;;;;;;6277157;22;20141;-86
2021/12/09 18:21:21;;;;;;;16.50;6.00;;;7.10;99.90;;;;;;6249649;22;20229;-90
2021/12/09 18:23:47;;;;;;;17.47;4.60;;;7.10;99.90;;;;;;6248173;22;20142;-81
2021/12/09 18:26:12;;;;;;;17.80;6.43;;;7.10;99.90;;;;;;6267090;22;20219;-82
2021/12/09 18:28:38;;;;;;;19.67;5.40;;;7.20;99.90;;;;;;6248789;22;20535;-82
2021/12/09 18:31:04;;;;;;;21.27;8.77;;;7.10;99.90;;;;;;6248457;22;20144;-82
2021/12/09 18:33:30;;;;;;;37.47;12.10;;;7.10;99.90;;;;;;6274688;22;20176;-82
2021/12/09 18:35:55;;;;;;;25.03;7.10;;;7.00;99.90;;;;;;6248615;22;20217;-79
2021/12/09 18:38:23;;;;;;;46.83;17.90;;;6.90;99.90;;;;;;6247734;22;20146;-80
2021/12/09 18:40:55;;;;;;;25.27;10.43;;;7.00;99.90;;;;;;6249155;22;20230;-81
2021/12/09 18:43:23;;;;;;;24.57;7.13;;;7.00;99.90;;;;;;6248753;22;20229;-80
2021/12/09 18:45:49;;;;;;;18.73;8.63;;;6.80;99.90;;;;;;6249091;22;20146;-81
2021/12/09 18:48:16;;;;;;;21.70;8.03;;;6.70;99.90;;;;;;6248775;22;20155;-81
2021/12/09 18:50:45;;;;;;;17.00;6.43;;;6.70;99.90;;;;;;6249647;22;20147;-81
2021/12/09 18:53:12;;;;;;;21.80;6.60;;;6.70;99.90;;;;;;6248248;22;20212;-81
2021/12/09 18:55:39;;;;;;;20.40;7.83;;;6.70;99.90;;;;;;6275148;22;20218;-81
2021/12/09 18:58:08;;;;;;;44.07;21.17;;;6.80;99.90;;;;;;6248301;22;20213;-81
2021/12/09 19:00:36;;;;;;;29.33;11.60;;;6.80;99.90;;;;;;6248916;22;20174;-81
2021/12/09 19:03:03;;;;;;;16.03;6.53;;;6.90;99.90;;;;;;6248247;22;20162;-81
2021/12/09 19:05:31;;;;;;;38.50;17.73;;;6.80;99.90;;;;;;6248997;22;20241;-81
2021/12/09 19:07:58;;;;;;;50.40;22.73;;;6.80;99.90;;;;;;6275874;22;20474;-81
2021/12/09 19:10:24;;;;;;;37.00;15.87;;;6.70;99.90;;;;;;6249319;22;20162;-81
2021/12/09 19:12:52;;;;;;;27.07;13.53;;;6.80;99.90;;;;;;6276418;22;20146;-81
2021/12/09 19:15:19;;;;;;;16.30;6.90;;;6.80;99.90;;;;;;6275947;22;20232;-81
2021/12/09 19:17:50;;;;;;;19.80;6.20;;;6.80;99.90;;;;;;6275763;22;20174;-81
2021/12/09 19:20:20;;;;;;;22.03;8.30;;;6.70;99.90;;;;;;6249441;22;20482;-81
2021/12/09 19:22:46;;;;;;;20.80;7.90;;;6.80;99.90;;;;;;6248607;22;20162;-81
2021/12/09 19:25:12;;;;;;;26.97;9.13;;;6.60;99.90;;;;;;6246329;22;20147;-81
2021/12/09 19:27:39;;;;;;;20.70;6.77;;;6.70;99.90;;;;;;6276049;22;20147;-81
2021/12/09 19:30:09;;;;;;;32.70;17.57;;;6.60;99.90;;;;;;6248339;22;20204;-82
2021/12/09 19:32:40;;;;;;;34.97;21.33;;;6.60;99.90;;;;;;6250889;22;20166;-81
2021/12/09 19:35:11;;;;;;;22.57;12.47;;;6.70;99.90;;;;;;6277747;22;20175;-81
2021/12/09 19:37:37;;;;;;;12.87;4.73;;;6.70;99.90;;;;;;6250001;22;20147;-81
2021/12/09 19:40:09;;;;;;;23.20;9.97;;;6.70;99.90;;;;;;6250114;22;20150;-81
2021/12/09 19:42:35;;;;;;;17.53;5.37;;;6.60;99.90;;;;;;6250927;22;20646;-81
2021/12/09 19:45:01;;;;;;;15.00;6.17;;;6.60;99.90;;;;;;6250889;22;20228;-81
2021/12/09 19:47:27;;;;;;;22.90;10.67;;;6.60;99.90;;;;;;6250784;22;20587;-81
2021/12/09 19:49:53;;;;;;;16.93;5.70;;;6.60;99.90;;;;;;6250813;22;20153;-81
2021/12/09 19:52:19;;;;;;;36.93;21.80;;;6.60;99.90;;;;;;6250753;22;20226;-80
2021/12/09 19:54:45;;;;;;;44.73;26.93;;;6.50;99.90;;;;;;6277104;22;20237;-81
2021/12/09 19:57:10;;;;;;;19.03;6.43;;;6.40;99.90;;;;;;6277589;22;20575;-80
2021/12/09 19:59:36;;;;;;;14.70;4.20;;;6.50;99.90;;;;;;6249972;22;20181;-81
2021/12/09 20:02:02;;;;;;;12.53;4.53;;;6.50;99.90;;;;;;6250121;22;20178;-81
2021/12/09 20:04:28;;;;;;;19.23;8.00;;;6.50;99.90;;;;;;6249977;22;20150;-81
2021/12/09 20:06:56;;;;;;;30.67;9.90;;;6.60;99.90;;;;;;6250029;22;20182;-81
2021/12/09 20:09:22;;;;;;;28.30;10.20;;;6.60;99.90;;;;;;6250289;22;20147;-80
2021/12/09 20:11:48;;;;;;;17.00;9.20;;;6.70;99.90;;;;;;6277544;22;20467;-80
2021/12/09 20:14:14;;;;;;;18.03;9.00;;;6.60;99.90;;;;;;6249205;22;20579;-88
2021/12/09 20:16:41;;;;;;;27.37;11.33;;;6.70;99.90;;;;;;6249556;22;20182;-81
2021/12/09 20:19:07;;;;;;;19.40;7.17;;;6.70;99.90;;;;;;6249756;22;20580;-80
2021/12/09 20:21:32;;;;;;;20.53;9.63;;;6.60;99.90;;;;;;6249573;22;20153;-82
2021/12/09 20:24:02;;;;;;;14.43;5.63;;;6.60;99.90;;;;;;6250589;22;20153;-81
2021/12/09 20:26:28;;;;;;;18.80;6.50;;;6.60;99.90;;;;;;6278081;22;20143;-81
2021/12/09 20:28:56;;;;;;;14.87;6.50;;;6.60;99.90;;;;;;6250560;22;20523;-81
2021/12/09 20:31:22;;;;;;;16.10;5.53;;;6.60;99.90;;;;;;6277229;22;20184;-81
2021/12/09 20:33:48;;;;;;;21.67;5.60;;;6.60;99.90;;;;;;6250460;22;20158;-83
2021/12/09 20:36:14;;;;;;;18.10;6.30;;;6.60;99.90;;;;;;6250207;22;20522;-81
2021/12/09 20:38:41;;;;;;;21.70;11.23;;;6.60;99.90;;;;;;6278016;22;20143;-81
2021/12/09 20:41:07;;;;;;;17.43;5.33;;;6.40;99.90;;;;;;6249908;22;20509;-82
2021/12/09 20:43:34;;;;;;;15.73;6.23;;;6.40;99.90;;;;;;6249996;22;20199;-82
2021/12/09 20:45:59;;;;;;;20.57;13.17;;;6.40;99.90;;;;;;6249517;22;20147;-80
2021/12/09 20:48:25;;;;;;;16.93;7.70;;;6.50;99.90;;;;;;6250636;22;20587;-80
2021/12/09 20:50:51;;;;;;;20.57;8.50;;;6.50;99.90;;;;;;6248551;22;20142;-80
2021/12/09 20:53:19;;;;;;;21.07;5.50;;;6.50;99.90;;;;;;6277402;22;20153;-80
2021/12/09 20:55:46;;;;;;;16.77;6.93;;;6.50;99.90;;;;;;6250647;22;20645;-81
2021/12/09 20:58:14;;;;;;;16.30;5.30;;;6.50;99.90;;;;;;6277689;22;20469;-80
2021/12/09 21:00:41;;;;;;;15.37;5.23;;;6.60;99.90;;;;;;6249969;22;20154;-80
2021/12/09 21:03:06;;;;;;;19.53;5.70;;;6.60;99.90;;;;;;6250135;22;20228;-80
2021/12/09 21:05:32;;;;;;;12.73;4.83;;;6.50;99.90;;;;;;6250236;22;20151;-80
2021/12/09 21:07:58;;;;;;;20.20;4.97;;;6.50;99.90;;;;;;6250375;22;20235;-79
2021/12/09 21:10:24;;;;;;;16.10;4.57;;;6.20;99.90;;;;;;6277271;22;20633;-81
2021/12/09 21:12:51;;;;;;;12.17;4.50;;;6.10;99.90;;;;;;6250856;22;20146;-82
2021/12/09 21:15:21;;;;;;;17.57;5.17;;;6.10;99.90;;;;;;6249497;22;20247;-81
2021/12/09 21:17:47;;;;;;;12.77;4.60;;;6.20;99.90;;;;;;6249909;22;20151;-80
2021/12/09 21:20:14;;;;;;;15.83;5.27;;;6.10;99.90;;;;;;6276643;22;20341;-80
2021/12/09 21:22:41;;;;;;;17.93;8.50;;;6.10;99.90;;;;;;6249862;22;20213;-80
2021/12/09 21:25:09;;;;;;;15.23;6.10;;;6.20;99.90;;;;;;6250485;22;20221;-81
2021/12/09 21:27:35;;;;;;;16.20;6.00;;;6.10;99.90;;;;;;6250549;22;20614;-81
2021/12/09 21:30:01;;;;;;;16.63;7.13;;;6.10;99.90;;;;;;6250238;22;20146;-80
2021/12/09 21:32:27;;;;;;;12.73;5.67;;;6.00;99.90;;;;;;6276529;22;20151;-80
2021/12/09 21:37:51;;;;;;;24.23;8.93;;;5.80;99.90;;;;;;6257793;22;20304;-83
2021/12/09 21:40:20;;;;;;;18.93;7.67;;;5.80;99.90;;;;;;6277290;22;20145;-80
2021/12/09 21:42:51;;;;;;;22.23;7.23;;;5.70;99.90;;;;;;6249812;22;20150;-80
2021/12/09 21:45:19;;;;;;;16.63;7.07;;;5.70;99.90;;;;;;6249344;22;20154;-80
2021/12/09 21:47:45;;;;;;;18.80;6.70;;;5.70;99.90;;;;;;6249107;22;20146;-81
2021/12/09 21:50:11;;;;;;;13.90;7.53;;;5.70;99.90;;;;;;6249445;22;20479;-80
2021/12/09 21:52:37;;;;;;;16.30;7.60;;;5.70;99.90;;;;;;6249693;22;20203;-80
2021/12/09 21:55:03;;;;;;;16.10;7.17;;;5.60;99.90;;;;;;6249170;22;20178;-80
2021/12/09 21:57:31;;;;;;;15.13;6.83;;;5.60;99.90;;;;;;6249899;22;20157;-80
2021/12/09 21:59:58;;;;;;;19.00;7.37;;;5.50;99.90;;;;;;6250203;22;20204;-80
2021/12/09 22:02:24;;;;;;;18.97;8.37;;;5.50;99.90;;;;;;6249253;22;20178;-80
2021/12/09 22:04:49;;;;;;;18.10;7.43;;;5.60;99.90;;;;;;6250226;22;20159;-80
2021/12/09 22:07:15;;;;;;;17.13;8.33;;;5.60;99.90;;;;;;6249584;22;20150;-80
2021/12/09 22:09:42;;;;;;;14.83;7.20;;;5.70;99.90;;;;;;6249851;22;20150;-81
2021/12/09 22:12:08;;;;;;;17.23;7.30;;;5.50;99.90;;;;;;6277281;22;20142;-80
2021/12/09 22:14:34;;;;;;;14.90;6.57;;;5.50;99.90;;;;;;6249595;22;20208;-80
2021/12/09 22:17:03;;;;;;;15.33;7.37;;;5.60;99.90;;;;;;6248889;22;20499;-80
2021/12/09 22:19:32;;;;;;;14.63;7.27;;;5.60;99.90;;;;;;6249793;22;20142;-81
2021/12/09 22:21:58;;;;;;;13.27;7.07;;;5.70;99.90;;;;;;6249110;22;20567;-81
2021/12/09 22:24:24;;;;;;;16.43;7.23;;;5.70;99.90;;;;;;6249694;22;20147;-82
2021/12/09 22:26:50;;;;;;;16.90;7.07;;;5.80;99.90;;;;;;6248907;22;20181;-82
2021/12/09 22:29:16;;;;;;;17.33;6.97;;;5.90;99.90;;;;;;6249147;22;20229;-80
2021/12/09 22:31:44;;;;;;;14.90;6.43;;;6.00;99.90;;;;;;6248760;22;20186;-81
2021/12/09 22:34:10;;;;;;;14.10;5.17;;;6.00;99.90;;;;;;6249820;22;20153;-81
2021/12/09 22:36:36;;;;;;;16.33;5.60;;;5.90;99.90;;;;;;6249292;22;20182;-80
2021/12/09 22:39:03;;;;;;;15.20;6.13;;;5.90;99.90;;;;;;6276694;22;20146;-81
2021/12/09 22:41:29;;;;;;;11.23;6.03;;;5.80;99.90;;;;;;6249673;22;20154;-81
2021/12/09 22:43:54;;;;;;;12.73;5.73;;;5.80;99.90;;;;;;6249015;22;20150;-80
2021/12/09 22:46:20;;;;;;;20.43;6.17;;;5.80;99.90;;;;;;6248986;22;20150;-80
2021/12/09 22:48:45;;;;;;;14.27;4.73;;;5.80;99.90;;;;;;6249230;22;20230;-80
2021/12/09 22:51:18;;;;;;;13.90;5.60;;;5.80;99.90;;;;;;6248959;22;20138;-80
2021/12/09 22:53:48;;;;;;;14.50;5.00;;;5.80;99.90;;;;;;6249040;22;20147;-80
2021/12/09 22:56:15;;;;;;;15.37;5.40;;;5.90;99.90;;;;;;6248762;22;20694;-80
2021/12/09 22:58:42;;;;;;;16.10;5.00;;;5.90;99.90;;;;;;6248564;22;20143;-81
2021/12/09 23:01:11;;;;;;;12.60;4.77;;;6.00;99.90;;;;;;6248648;22;20177;-84
2021/12/09 23:03:38;;;;;;;13.70;5.30;;;5.90;99.90;;;;;;6248648;22;20244;-80
2021/12/09 23:06:06;;;;;;;18.13;5.77;;;5.90;99.90;;;;;;6277901;22;20188;-81
2021/12/09 23:08:35;;;;;;;14.30;4.93;;;5.90;99.90;;;;;;6251012;22;20153;-80
2021/12/09 23:11:06;;;;;;;11.00;4.47;;;5.90;99.90;;;;;;6278087;22;20162;-80
2021/12/09 23:13:35;;;;;;;17.40;4.80;;;6.10;99.90;;;;;;6277899;22;20193;-80
2021/12/09 23:16:03;;;;;;;15.07;4.47;;;6.10;99.90;;;;;;6250593;22;20649;-81
2021/12/09 23:18:32;;;;;;;14.67;5.70;;;6.10;99.90;;;;;;6250857;22;20142;-81
2021/12/09 23:20:58;;;;;;;12.73;5.43;;;6.10;99.90;;;;;;6251253;22;20234;-80
2021/12/09 23:23:24;;;;;;;17.93;5.50;;;6.10;99.90;;;;;;6251235;22;20248;-80
2021/12/09 23:25:51;;;;;;;9.57;4.63;;;6.10;99.90;;;;;;6251177;22;20609;-79
2021/12/09 23:28:20;;;;;;;15.83;4.77;;;6.10;99.90;;;;;;6250786;22;20178;-80
2021/12/09 23:30:47;;;;;;;11.67;4.90;;;6.10;99.90;;;;;;6251532;22;20154;-80
2021/12/09 23:33:14;;;;;;;14.80;4.67;;;6.10;99.90;;;;;;6251657;22;20177;-81
2021/12/09 23:35:42;;;;;;;16.67;4.23;;;6.10;99.90;;;;;;6251238;22;20190;-81
2021/12/09 23:38:09;;;;;;;11.93;4.13;;;6.10;99.90;;;;;;6278413;22;20142;-81
2021/12/09 23:40:35;;;;;;;17.93;5.63;;;6.20;99.90;;;;;;6251072;22;20554;-80
2021/12/09 23:43:01;;;;;;;11.87;4.00;;;6.20;99.90;;;;;;6250468;22;20142;-81
2021/12/09 23:45:27;;;;;;;14.00;4.23;;;6.10;99.90;;;;;;6250263;22;20212;-80
2021/12/09 23:47:52;;;;;;;11.33;3.87;;;6.20;99.90;;;;;;6277318;22;20146;-81
2021/12/09 23:50:18;;;;;;;17.13;4.40;;;6.30;99.90;;;;;;6250368;22;20146;-80
2021/12/09 23:52:45;;;;;;;12.77;4.00;;;6.30;99.90;;;;;;6250288;22;20228;-80
2021/12/09 23:55:13;;;;;;;10.00;4.17;;;6.30;99.90;;;;;;6248350;22;20190;-80
2021/12/09 23:57:40;;;;;;;13.03;5.00;;;6.40;99.90;;;;;;6249412;22;20155;-81
